Time;durP1;ratioP1;P1;durP2;ratioP2;P2;SDS_P1;SDS_P2;PMS_P1;PMS_P2;Temp;Humidity;BMP_temperature;BMP_pressure;BME280_temperature;BME280_humidity;BME280_pressure;Samples;Min_cycle;Max_cycle;Signal;HPM_P1;HPM_P2
2021/11/04 00:00:17;;;;;;;27.93;20.07;;;8.50;99.90;;;;;;5026716;28;20537;-65
2021/11/04 00:02:47;;;;;;;28.53;20.43;;;8.50;99.90;;;;;;5024306;28;20664;-64
2021/11/04 00:05:15;;;;;;;30.27;22.33;;;8.50;99.90;;;;;;5029997;28;20233;-64
2021/11/04 00:07:47;;;;;;;29.27;21.77;;;8.50;99.90;;;;;;5029753;28;20315;-65
2021/11/04 00:10:16;;;;;;;27.97;19.40;;;8.50;99.90;;;;;;5029495;28;20259;-66
2021/11/04 00:12:44;;;;;;;29.07;22.20;;;8.50;99.90;;;;;;5028792;28;20613;-64
2021/11/04 00:15:13;;;;;;;27.47;20.17;;;8.50;99.90;;;;;;5024392;28;20241;-64
2021/11/04 00:17:41;;;;;;;31.83;22.00;;;8.50;99.90;;;;;;5029507;28;20240;-64
2021/11/04 00:20:14;;;;;;;27.17;20.13;;;8.70;99.90;;;;;;5028759;28;20239;-65
2021/11/04 00:22:43;;;;;;;24.77;19.77;;;8.60;99.90;;;;;;5029251;28;20684;-65
2021/11/04 00:25:12;;;;;;;26.23;20.57;;;8.50;99.90;;;;;;5029501;28;20242;-64
2021/11/04 00:27:40;;;;;;;25.33;19.70;;;8.60;99.90;;;;;;5029121;28;20264;-64
2021/11/04 00:30:10;;;;;;;25.37;19.53;;;8.50;99.90;;;;;;5029084;28;20247;-64
2021/11/04 00:32:43;;;;;;;24.80;19.43;;;8.50;99.90;;;;;;5027376;28;20316;-64
2021/11/04 00:35:13;;;;;;;24.47;18.53;;;8.50;99.90;;;;;;5029485;28;20763;-64
2021/11/04 00:37:41;;;;;;;25.77;19.63;;;8.50;99.90;;;;;;5029122;28;20244;-64
2021/11/04 00:40:14;;;;;;;25.87;19.93;;;8.50;99.90;;;;;;5028136;28;20730;-64
2021/11/04 00:42:42;;;;;;;25.33;19.07;;;8.50;99.90;;;;;;5026068;28;20327;-64
2021/11/04 00:45:11;;;;;;;22.97;18.70;;;8.50;99.90;;;;;;5026539;28;20239;-65
2021/11/04 00:47:40;;;;;;;25.87;19.87;;;8.40;99.90;;;;;;5029003;28;20241;-66
2021/11/04 00:50:09;;;;;;;26.50;18.93;;;8.50;99.90;;;;;;5028436;28;20328;-64
2021/11/04 00:52:38;;;;;;;26.03;19.00;;;8.60;99.90;;;;;;5021655;28;20232;-64
2021/11/04 00:55:09;;;;;;;24.80;19.13;;;8.60;99.90;;;;;;5027851;28;20643;-65
2021/11/04 00:57:37;;;;;;;25.63;19.47;;;8.50;99.90;;;;;;5029186;28;20244;-64
2021/11/04 01:00:09;;;;;;;26.20;19.40;;;8.50;99.90;;;;;;5028354;28;20236;-64
2021/11/04 01:02:39;;;;;;;27.13;20.43;;;8.50;99.90;;;;;;5026752;28;20260;-65
2021/11/04 01:05:08;;;;;;;26.17;19.67;;;8.50;99.90;;;;;;5025134;28;20336;-65
2021/11/04 01:07:38;;;;;;;27.50;21.00;;;8.50;99.90;;;;;;5028901;28;20228;-65
2021/11/04 01:10:09;;;;;;;24.93;20.07;;;8.40;99.90;;;;;;5028086;28;20594;-65
2021/11/04 01:12:39;;;;;;;25.17;20.40;;;8.40;99.90;;;;;;5028657;28;20244;-64
2021/11/04 01:15:09;;;;;;;24.63;20.13;;;8.40;99.90;;;;;;5028584;28;20239;-64
2021/11/04 01:17:39;;;;;;;26.27;19.67;;;8.40;99.90;;;;;;5028459;28;20267;-64
2021/11/04 01:20:09;;;;;;;30.33;21.47;;;8.40;99.90;;;;;;5027592;28;20232;-64
2021/11/04 01:22:41;;;;;;;26.37;20.37;;;8.40;99.90;;;;;;5026599;28;20243;-64
2021/11/04 01:25:11;;;;;;;26.67;19.23;;;8.40;99.90;;;;;;5027944;28;20248;-65
2021/11/04 01:27:41;;;;;;;27.50;20.17;;;8.40;99.90;;;;;;5028481;28;20232;-64
2021/11/04 01:30:11;;;;;;;26.90;20.57;;;8.40;99.90;;;;;;5027310;28;20244;-65
2021/11/04 01:32:40;;;;;;;26.23;20.67;;;8.40;99.90;;;;;;5028097;28;20267;-64
2021/11/04 01:35:10;;;;;;;24.83;19.40;;;8.40;99.90;;;;;;5028035;28;20355;-65
2021/11/04 01:37:41;;;;;;;27.70;21.80;;;8.40;99.90;;;;;;5028461;28;20265;-64
2021/11/04 01:40:11;;;;;;;24.23;20.10;;;8.30;99.90;;;;;;5027629;28;20228;-64
2021/11/04 01:42:39;;;;;;;28.47;21.13;;;8.40;99.90;;;;;;5027442;28;20286;-64
2021/11/04 01:45:07;;;;;;;25.40;20.17;;;8.50;99.90;;;;;;5027715;28;20236;-64
2021/11/04 01:47:40;;;;;;;28.17;21.23;;;8.60;99.90;;;;;;5027773;28;20232;-64
2021/11/04 01:50:09;;;;;;;26.10;20.13;;;8.40;99.90;;;;;;5027181;28;20317;-64
2021/11/04 01:52:37;;;;;;;27.17;20.90;;;8.40;99.90;;;;;;5027751;28;20745;-64
2021/11/04 01:55:07;;;;;;;25.00;20.07;;;8.40;99.90;;;;;;5026327;28;20605;-64
2021/11/04 01:57:35;;;;;;;27.53;20.63;;;8.30;99.90;;;;;;5027828;28;20290;-64
2021/11/04 02:00:07;;;;;;;28.57;21.10;;;8.40;99.90;;;;;;5027145;28;20710;-65
2021/11/04 02:02:42;;;;;;;26.67;19.57;;;8.40;99.90;;;;;;5027226;28;20244;-64
2021/11/04 02:05:14;;;;;;;28.10;22.03;;;8.40;99.90;;;;;;5027781;28;20750;-64
2021/11/04 02:07:50;;;;;;;30.13;21.17;;;8.30;99.90;;;;;;5027636;28;20239;-64
2021/11/04 02:10:27;;;;;;;25.47;20.87;;;8.30;99.90;;;;;;5026863;28;20286;-64
2021/11/04 02:13:02;;;;;;;26.03;20.00;;;8.30;99.90;;;;;;5026731;28;20240;-64
2021/11/04 02:15:33;;;;;;;26.90;20.33;;;8.30;99.90;;;;;;5023694;28;20652;-64
2021/11/04 02:18:04;;;;;;;24.83;19.87;;;8.40;99.90;;;;;;5021722;28;20730;-64
2021/11/04 02:20:44;;;;;;;25.43;20.40;;;8.30;99.90;;;;;;5024088;28;20237;-65
2021/11/04 02:23:27;;;;;;;26.23;20.53;;;8.40;99.90;;;;;;5026687;28;20244;-65
2021/11/04 02:25:57;;;;;;;26.53;20.67;;;8.30;99.90;;;;;;5022913;28;20247;-64
2021/11/04 02:28:25;;;;;;;28.13;20.03;;;8.30;99.90;;;;;;5026485;28;20327;-65
2021/11/04 02:30:54;;;;;;;31.47;21.07;;;8.30;99.90;;;;;;5024206;28;20279;-65
2021/11/04 02:33:23;;;;;;;28.53;21.23;;;8.40;99.90;;;;;;5027392;28;20661;-65
2021/11/04 02:35:53;;;;;;;27.77;21.17;;;8.30;99.90;;;;;;5027347;28;20327;-64
2021/11/04 02:38:23;;;;;;;28.50;21.60;;;8.20;99.90;;;;;;5027000;28;20293;-64
2021/11/04 02:40:54;;;;;;;31.53;22.20;;;8.20;99.90;;;;;;5020872;28;20278;-65
2021/11/04 02:43:24;;;;;;;28.80;20.47;;;8.20;99.90;;;;;;5027126;28;20245;-64
2021/11/04 02:45:53;;;;;;;28.67;21.67;;;8.20;99.90;;;;;;5027049;28;20240;-64
2021/11/04 02:48:21;;;;;;;28.63;20.60;;;8.20;99.90;;;;;;5026728;28;20240;-64
2021/11/04 02:50:51;;;;;;;28.17;20.57;;;8.10;99.90;;;;;;5026153;28;20256;-65
2021/11/04 02:53:21;;;;;;;25.43;20.13;;;8.20;99.90;;;;;;5026767;28;20233;-64
2021/11/04 02:55:50;;;;;;;26.60;20.07;;;8.10;99.90;;;;;;5026801;28;20268;-64
2021/11/04 02:58:19;;;;;;;26.03;20.03;;;8.10;99.90;;;;;;5026842;28;20236;-65
2021/11/04 03:00:52;;;;;;;24.60;19.10;;;8.10;99.90;;;;;;5024734;28;21190;-64
2021/11/04 03:03:20;;;;;;;26.63;19.00;;;8.10;99.90;;;;;;5027002;28;20294;-64
2021/11/04 03:05:49;;;;;;;26.07;18.27;;;8.30;99.90;;;;;;5026665;28;20315;-64
2021/11/04 03:08:17;;;;;;;25.10;19.60;;;8.20;99.90;;;;;;5026720;28;20613;-64
2021/11/04 03:10:45;;;;;;;25.07;18.60;;;8.10;99.90;;;;;;5025741;28;20240;-64
2021/11/04 03:13:14;;;;;;;25.13;18.90;;;8.10;99.90;;;;;;5026590;28;20232;-64
2021/11/04 03:15:45;;;;;;;26.83;19.50;;;8.10;99.90;;;;;;5026276;28;20240;-65
2021/11/04 03:18:15;;;;;;;26.20;19.90;;;8.10;99.90;;;;;;5025561;28;20714;-64
2021/11/04 03:20:45;;;;;;;24.83;18.17;;;8.10;99.90;;;;;;5023458;28;20286;-64
2021/11/04 03:23:13;;;;;;;25.20;19.87;;;8.10;99.90;;;;;;5026146;28;20250;-64
2021/11/04 03:25:43;;;;;;;26.97;20.07;;;8.10;99.90;;;;;;5024549;28;20232;-64
2021/11/04 03:28:12;;;;;;;26.83;20.33;;;8.00;99.90;;;;;;5028973;28;20243;-64
2021/11/04 03:30:44;;;;;;;27.57;20.50;;;8.10;99.90;;;;;;5028053;28;20240;-64
2021/11/04 03:33:13;;;;;;;30.00;21.43;;;8.10;99.90;;;;;;5029343;28;20260;-64
2021/11/04 03:35:43;;;;;;;27.20;20.63;;;8.20;99.90;;;;;;5029140;28;20239;-65
2021/11/04 03:38:13;;;;;;;33.33;22.17;;;8.20;99.90;;;;;;5029287;28;20275;-64
2021/11/04 03:40:43;;;;;;;29.63;21.37;;;8.20;99.90;;;;;;5028559;28;20595;-65
2021/11/04 03:43:12;;;;;;;29.37;21.63;;;8.10;99.90;;;;;;5028567;28;20294;-66
2021/11/04 03:45:41;;;;;;;27.07;20.80;;;8.10;99.90;;;;;;5028409;28;20244;-64
2021/11/04 03:48:10;;;;;;;31.03;23.37;;;8.10;99.90;;;;;;5029219;28;20326;-64
2021/11/04 03:50:39;;;;;;;35.20;23.17;;;8.10;99.90;;;;;;5025248;28;20235;-65
2021/11/04 03:53:10;;;;;;;31.53;22.37;;;8.10;99.90;;;;;;5028897;28;20290;-65
2021/11/04 03:55:39;;;;;;;33.03;23.33;;;8.20;99.90;;;;;;5023500;28;20237;-65
2021/11/04 03:58:09;;;;;;;34.40;22.67;;;8.00;99.90;;;;;;5028745;28;20271;-64
2021/11/04 04:00:37;;;;;;;34.93;24.80;;;8.20;99.90;;;;;;5028043;28;20632;-65
2021/11/04 04:03:06;;;;;;;33.63;24.13;;;8.10;99.90;;;;;;5028573;28;20232;-64
2021/11/04 04:05:34;;;;;;;38.37;25.57;;;8.10;99.90;;;;;;5029098;28;20239;-64
2021/11/04 04:08:03;;;;;;;36.17;24.13;;;8.10;99.90;;;;;;5029745;28;20232;-65
2021/11/04 04:10:33;;;;;;;34.03;24.67;;;8.10;99.90;;;;;;5028211;28;20232;-65
2021/11/04 04:13:02;;;;;;;32.17;23.57;;;8.10;99.90;;;;;;5028772;28;20239;-65
2021/11/04 04:15:30;;;;;;;34.27;24.67;;;8.00;99.90;;;;;;5026757;28;20237;-65
2021/11/04 04:17:58;;;;;;;35.70;25.00;;;8.10;99.90;;;;;;5029803;28;20268;-65
2021/11/04 04:20:27;;;;;;;34.07;24.27;;;8.00;99.90;;;;;;5028711;28;20232;-64
2021/11/04 04:22:55;;;;;;;36.37;25.17;;;8.00;99.90;;;;;;5029245;28;20243;-64
2021/11/04 04:25:26;;;;;;;33.40;24.03;;;8.10;99.90;;;;;;5029049;28;20696;-65
2021/11/04 04:27:56;;;;;;;38.37;25.93;;;8.10;99.90;;;;;;5029721;28;20236;-65
2021/11/04 04:30:27;;;;;;;36.43;24.50;;;8.10;99.90;;;;;;5029099;28;20311;-65
2021/11/04 04:32:55;;;;;;;34.00;23.77;;;8.00;99.90;;;;;;5025056;28;20703;-64
2021/11/04 04:35:23;;;;;;;33.13;23.10;;;8.00;99.90;;;;;;5029186;28;20236;-65
2021/11/04 04:37:52;;;;;;;37.37;25.23;;;8.00;99.90;;;;;;5028280;28;20324;-64
2021/11/04 04:40:20;;;;;;;38.23;24.80;;;8.00;99.90;;;;;;5028470;28;20232;-64
2021/11/04 04:42:49;;;;;;;36.20;24.73;;;8.00;99.90;;;;;;5029441;28;20626;-64
2021/11/04 04:45:18;;;;;;;35.00;24.60;;;8.00;99.90;;;;;;5029250;28;20256;-64
2021/11/04 04:47:46;;;;;;;35.07;24.17;;;8.20;99.90;;;;;;5028934;28;20328;-65
2021/11/04 04:50:15;;;;;;;34.67;24.03;;;8.20;99.90;;;;;;5028673;28;20270;-65
2021/11/04 04:52:43;;;;;;;35.50;25.17;;;8.20;99.90;;;;;;5028755;28;20241;-64
2021/11/04 04:55:11;;;;;;;34.07;23.67;;;8.20;99.90;;;;;;5026646;28;20702;-64
2021/11/04 04:57:39;;;;;;;35.17;23.63;;;8.20;99.90;;;;;;5029107;28;20263;-64
2021/11/04 05:00:12;;;;;;;33.27;23.13;;;8.20;99.90;;;;;;5023372;28;20742;-64
2021/11/04 05:02:42;;;;;;;34.27;23.97;;;8.10;99.90;;;;;;5022171;28;20235;-64
2021/11/04 05:05:13;;;;;;;29.60;22.43;;;8.20;99.90;;;;;;5028968;28;20679;-64
2021/11/04 05:07:41;;;;;;;33.03;23.37;;;8.10;99.90;;;;;;5028616;28;20631;-64
2021/11/04 05:10:10;;;;;;;35.37;23.33;;;8.10;99.90;;;;;;5027246;28;20232;-64
2021/11/04 05:12:42;;;;;;;32.37;23.33;;;8.20;99.90;;;;;;5028500;28;20662;-64
2021/11/04 05:15:12;;;;;;;32.07;21.53;;;8.20;99.90;;;;;;5026202;28;20232;-64
2021/11/04 05:17:43;;;;;;;33.17;22.17;;;8.20;99.90;;;;;;5028853;28;20324;-65
2021/11/04 05:20:12;;;;;;;35.57;24.10;;;8.20;99.90;;;;;;5027814;28;20766;-65
2021/11/04 05:22:40;;;;;;;33.97;23.47;;;8.20;99.90;;;;;;5028394;28;20323;-64
2021/11/04 05:25:08;;;;;;;33.63;23.77;;;8.30;99.90;;;;;;5028312;28;20250;-64
2021/11/04 05:27:37;;;;;;;35.20;24.27;;;8.30;99.90;;;;;;5028180;28;20556;-65
2021/11/04 05:30:06;;;;;;;34.53;23.63;;;8.20;99.90;;;;;;5027653;28;20228;-64
2021/11/04 05:32:35;;;;;;;31.33;22.37;;;8.20;99.90;;;;;;5028001;28;20290;-64
2021/11/04 05:35:05;;;;;;;31.60;23.03;;;8.10;99.90;;;;;;5028105;28;20236;-65
2021/11/04 05:37:33;;;;;;;34.27;23.37;;;8.10;99.90;;;;;;5027946;28;20237;-64
2021/11/04 05:40:01;;;;;;;32.97;23.00;;;8.20;99.90;;;;;;5027427;28;20323;-64
2021/11/04 05:42:29;;;;;;;32.47;23.47;;;8.10;99.90;;;;;;5025390;28;20229;-64
2021/11/04 05:44:57;;;;;;;32.87;23.23;;;8.10;99.90;;;;;;5028081;28;20236;-64
2021/11/04 05:47:25;;;;;;;33.23;23.33;;;8.10;99.90;;;;;;5026937;28;20287;-64
2021/11/04 05:49:53;;;;;;;33.87;22.60;;;8.10;99.90;;;;;;5027738;28;20252;-64
2021/11/04 05:52:23;;;;;;;33.10;23.80;;;8.10;99.90;;;;;;5028213;28;20520;-64
2021/11/04 05:54:53;;;;;;;32.47;23.60;;;8.00;99.90;;;;;;5027306;28;20315;-65
2021/11/04 05:57:21;;;;;;;34.33;22.70;;;8.00;99.90;;;;;;5028064;28;20331;-64
2021/11/04 05:59:49;;;;;;;33.17;23.53;;;8.10;99.90;;;;;;5026735;28;20267;-64
2021/11/04 06:02:18;;;;;;;33.43;23.83;;;8.20;99.90;;;;;;5027821;28;20251;-64
2021/11/04 06:04:46;;;;;;;34.93;23.97;;;8.10;99.90;;;;;;5031587;28;20337;-64
2021/11/04 06:07:15;;;;;;;32.83;22.90;;;8.20;99.90;;;;;;5027575;28;20236;-64
2021/11/04 06:09:45;;;;;;;33.70;23.17;;;8.10;99.90;;;;;;5026853;28;20228;-64
2021/11/04 06:12:13;;;;;;;31.30;22.40;;;8.10;99.90;;;;;;5027652;28;20282;-65
2021/11/04 06:14:41;;;;;;;32.13;22.63;;;8.00;99.90;;;;;;5027448;28;20234;-65
2021/11/04 06:17:09;;;;;;;30.13;20.60;;;8.00;99.90;;;;;;5027279;28;20558;-64
2021/11/04 06:19:37;;;;;;;38.40;22.97;;;8.20;99.90;;;;;;5025358;28;20229;-64
2021/11/04 06:22:06;;;;;;;38.53;25.53;;;8.30;99.90;;;;;;5027318;28;20543;-64
2021/11/04 06:24:34;;;;;;;34.23;23.63;;;8.30;99.90;;;;;;5026565;28;20237;-64
2021/11/04 06:27:04;;;;;;;35.53;23.47;;;8.20;99.90;;;;;;5023042;28;20236;-64
2021/11/04 06:29:32;;;;;;;34.17;22.60;;;8.20;99.90;;;;;;5017950;28;20274;-64
2021/11/04 06:32:00;;;;;;;34.80;22.57;;;8.20;99.90;;;;;;5021903;28;20236;-64
2021/11/04 06:34:28;;;;;;;36.20;25.00;;;8.30;99.90;;;;;;5017364;28;20679;-64
2021/11/04 06:36:56;;;;;;;36.07;24.23;;;8.20;99.90;;;;;;5025646;28;20232;-64
2021/11/04 06:39:24;;;;;;;35.70;24.00;;;8.20;99.90;;;;;;5024340;28;20700;-64
2021/11/04 06:41:52;;;;;;;31.17;21.70;;;8.20;99.90;;;;;;5026262;28;20231;-65
2021/11/04 06:44:22;;;;;;;29.03;22.10;;;8.10;99.90;;;;;;5026483;28;20311;-64
2021/11/04 06:46:51;;;;;;;27.73;20.30;;;8.10;99.90;;;;;;5020678;28;20656;-64
2021/11/04 06:49:23;;;;;;;30.20;21.67;;;8.10;99.90;;;;;;5026325;28;20239;-64
2021/11/04 06:51:53;;;;;;;31.30;22.27;;;8.10;99.90;;;;;;5022135;28;20609;-64
2021/11/04 06:54:25;;;;;;;32.70;21.90;;;8.20;99.90;;;;;;5026416;28;20245;-64
2021/11/04 06:56:54;;;;;;;33.53;22.73;;;8.10;99.90;;;;;;5026969;28;20240;-64
2021/11/04 06:59:26;;;;;;;29.40;21.53;;;8.20;99.90;;;;;;5025836;28;20708;-64
2021/11/04 07:01:56;;;;;;;30.63;22.03;;;8.20;99.90;;;;;;5025014;28;20612;-65
2021/11/04 07:04:28;;;;;;;30.80;21.90;;;8.20;99.90;;;;;;5025493;28;20291;-66
2021/11/04 07:07:03;;;;;;;30.27;22.03;;;8.20;99.90;;;;;;5025842;28;20232;-64
2021/11/04 07:09:32;;;;;;;29.23;20.07;;;8.20;99.90;;;;;;5020811;28;20651;-64
2021/11/04 07:12:05;;;;;;;31.87;22.07;;;8.30;99.90;;;;;;5022667;28;20350;-65
2021/11/04 07:14:36;;;;;;;32.23;21.87;;;8.20;99.90;;;;;;5020136;28;20254;-64
2021/11/04 07:17:05;;;;;;;29.73;22.20;;;8.30;99.90;;;;;;5034385;28;20244;-64
2021/11/04 07:19:34;;;;;;;31.80;22.50;;;8.30;99.90;;;;;;5025528;28;20235;-63
2021/11/04 07:22:12;;;;;;;32.80;23.03;;;8.30;99.90;;;;;;5024592;28;20233;-64
2021/11/04 07:24:46;;;;;;;31.33;22.27;;;8.20;99.90;;;;;;5025211;28;20660;-63
2021/11/04 07:27:26;;;;;;;33.27;22.73;;;8.30;99.90;;;;;;5022569;28;20326;-63
2021/11/04 07:29:58;;;;;;;30.43;21.70;;;8.30;99.90;;;;;;5019625;28;20260;-64
2021/11/04 07:32:30;;;;;;;32.37;22.87;;;8.30;99.90;;;;;;5023234;28;20236;-64
2021/11/04 07:34:59;;;;;;;30.47;22.27;;;8.30;99.90;;;;;;5025278;28;20294;-63
2021/11/04 07:37:31;;;;;;;34.60;22.50;;;8.30;99.90;;;;;;5026099;28;20228;-65
2021/11/04 07:40:00;;;;;;;33.60;23.53;;;8.40;99.90;;;;;;5024782;28;20657;-63
2021/11/04 07:42:28;;;;;;;31.67;22.57;;;8.30;99.90;;;;;;5024989;28;20232;-63
2021/11/04 07:44:58;;;;;;;33.57;21.87;;;8.30;99.90;;;;;;5021419;28;20243;-64
2021/11/04 07:47:26;;;;;;;34.07;24.13;;;8.40;99.90;;;;;;5004000;28;20511;-65
2021/11/04 07:49:54;;;;;;;33.77;22.97;;;8.30;99.90;;;;;;5006441;28;20730;-63
2021/11/04 07:52:22;;;;;;;32.67;22.57;;;8.30;99.90;;;;;;5004587;28;20592;-65
2021/11/04 07:54:51;;;;;;;31.17;22.17;;;8.30;99.90;;;;;;5006189;28;20236;-65
2021/11/04 07:57:19;;;;;;;32.23;21.97;;;8.30;99.90;;;;;;5005702;28;20232;-64
2021/11/04 07:59:47;;;;;;;30.33;22.20;;;8.30;99.90;;;;;;5006114;28;20573;-65
2021/11/04 08:02:16;;;;;;;31.67;21.90;;;8.30;99.90;;;;;;5002432;28;20240;-64
2021/11/04 08:04:44;;;;;;;31.63;21.47;;;8.30;99.90;;;;;;5005917;28;20240;-65
2021/11/04 08:07:12;;;;;;;29.53;20.20;;;8.30;99.90;;;;;;5005710;28;20622;-65
2021/11/04 08:09:41;;;;;;;29.03;20.67;;;8.30;99.90;;;;;;5005539;28;20248;-64
2021/11/04 08:12:10;;;;;;;27.27;19.63;;;8.30;99.90;;;;;;5002312;28;20236;-65
2021/11/04 08:14:39;;;;;;;26.93;18.67;;;8.40;99.90;;;;;;5009770;28;20327;-65
2021/11/04 08:17:07;;;;;;;26.73;18.80;;;8.30;99.90;;;;;;5009601;28;20232;-63
2021/11/04 08:19:36;;;;;;;24.20;18.07;;;8.20;99.90;;;;;;5009068;28;20678;-65
2021/11/04 08:22:04;;;;;;;24.07;17.50;;;8.20;99.90;;;;;;5006033;28;20585;-64
2021/11/04 08:24:36;;;;;;;24.20;17.63;;;8.30;99.90;;;;;;5008116;28;20302;-65
2021/11/04 08:27:04;;;;;;;22.20;15.57;;;8.30;99.90;;;;;;5009426;28;20674;-64
2021/11/04 08:29:32;;;;;;;23.63;16.93;;;8.40;99.90;;;;;;5008719;28;20240;-65
2021/11/04 08:32:00;;;;;;;23.13;17.50;;;8.40;99.90;;;;;;5004971;28;20251;-65
2021/11/04 08:34:29;;;;;;;20.90;14.77;;;8.40;99.90;;;;;;5008796;28;20232;-64
2021/11/04 08:36:58;;;;;;;19.67;14.67;;;8.40;99.90;;;;;;5008413;28;20644;-64
2021/11/04 08:39:26;;;;;;;21.90;15.43;;;8.30;99.90;;;;;;5008600;28;20243;-63
2021/11/04 08:41:54;;;;;;;21.93;15.03;;;8.30;99.90;;;;;;5005894;28;20727;-63
2021/11/04 08:44:23;;;;;;;18.50;13.97;;;8.40;99.90;;;;;;5008783;28;20938;-64
2021/11/04 08:46:51;;;;;;;18.83;14.30;;;8.40;99.90;;;;;;5008439;28;20560;-64
2021/11/04 08:49:20;;;;;;;19.63;14.33;;;8.40;99.90;;;;;;5007398;28;20799;-63
2021/11/04 08:51:48;;;;;;;18.70;14.03;;;8.40;99.90;;;;;;5004414;28;20240;-65
2021/11/04 08:54:18;;;;;;;22.60;15.73;;;8.50;99.90;;;;;;5007911;28;20318;-63
2021/11/04 08:56:48;;;;;;;22.50;16.10;;;8.50;99.90;;;;;;4997586;28;20531;-64
2021/11/04 08:59:16;;;;;;;23.07;17.53;;;8.60;99.90;;;;;;4997813;28;20332;-64
2021/11/04 09:01:44;;;;;;;25.63;18.13;;;8.60;99.90;;;;;;4994743;28;20236;-65
2021/11/04 09:04:15;;;;;;;23.30;17.27;;;8.60;99.90;;;;;;5006123;28;20241;-65
2021/11/04 09:06:43;;;;;;;24.33;18.60;;;8.60;99.90;;;;;;5007668;28;20236;-65
2021/11/04 09:09:12;;;;;;;30.07;21.70;;;8.60;99.90;;;;;;5007979;28;20232;-64
2021/11/04 09:11:44;;;;;;;27.30;20.97;;;8.60;99.90;;;;;;5005476;28;20246;-65
2021/11/04 09:14:13;;;;;;;27.40;20.47;;;8.60;99.90;;;;;;5008156;28;20327;-65
2021/11/04 09:16:42;;;;;;;29.63;21.70;;;8.60;99.90;;;;;;5007774;28;20615;-65
2021/11/04 09:19:10;;;;;;;28.33;21.67;;;8.60;99.90;;;;;;5008724;28;20243;-65
2021/11/04 09:21:38;;;;;;;26.83;20.60;;;8.60;99.90;;;;;;5004822;28;20708;-65
2021/11/04 09:24:07;;;;;;;25.73;19.97;;;8.60;99.90;;;;;;5008161;28;20236;-63
2021/11/04 09:26:36;;;;;;;26.50;19.47;;;8.60;99.90;;;;;;5007455;28;20237;-65
2021/11/04 09:29:07;;;;;;;26.00;18.83;;;8.60;99.90;;;;;;5006584;28;20245;-65
2021/11/04 09:31:35;;;;;;;23.37;18.27;;;8.60;99.90;;;;;;5003838;28;20336;-65
2021/11/04 09:34:06;;;;;;;25.30;18.70;;;8.60;99.90;;;;;;5007201;28;20605;-64
2021/11/04 09:36:34;;;;;;;26.03;19.03;;;8.60;99.90;;;;;;5006697;28;20948;-64
2021/11/04 09:39:03;;;;;;;22.13;17.27;;;8.70;99.90;;;;;;5007424;28;20974;-64
2021/11/04 09:41:33;;;;;;;22.80;17.67;;;8.70;99.90;;;;;;5004878;28;20328;-64
2021/11/04 09:44:03;;;;;;;23.77;17.57;;;8.70;99.90;;;;;;5007566;28;20348;-65
2021/11/04 09:46:35;;;;;;;20.27;16.10;;;8.70;99.90;;;;;;5008020;28;20247;-64
2021/11/04 09:49:04;;;;;;;19.30;15.47;;;8.70;99.90;;;;;;5007062;28;20291;-65
2021/11/04 09:51:32;;;;;;;24.03;17.10;;;8.70;99.90;;;;;;5004269;28;20244;-65
2021/11/04 09:54:01;;;;;;;20.60;16.43;;;8.80;99.90;;;;;;5007262;28;20241;-65
2021/11/04 09:56:30;;;;;;;19.53;15.23;;;8.80;99.90;;;;;;5007554;28;20236;-65
2021/11/04 09:58:58;;;;;;;20.83;15.60;;;8.80;99.90;;;;;;5007549;28;20258;-65
2021/11/04 10:01:29;;;;;;;19.40;15.13;;;8.70;99.90;;;;;;5003245;28;20338;-64
2021/11/04 10:04:00;;;;;;;17.77;14.00;;;8.70;99.90;;;;;;5007256;28;20371;-65
2021/11/04 10:06:30;;;;;;;18.87;14.17;;;8.70;99.90;;;;;;5006409;28;20314;-65
2021/11/04 10:09:00;;;;;;;18.27;14.13;;;8.80;99.90;;;;;;5006077;28;20653;-65
2021/11/04 10:11:32;;;;;;;17.53;13.97;;;8.80;99.90;;;;;;5003755;28;20251;-64
2021/11/04 10:14:02;;;;;;;19.87;14.73;;;8.80;99.90;;;;;;5007797;28;20314;-64
2021/11/04 10:16:33;;;;;;;20.00;14.47;;;8.80;99.90;;;;;;5005889;28;20287;-65
2021/11/04 10:19:14;;;;;;;19.40;13.80;;;8.70;99.90;;;;;;5005407;28;20238;-64
2021/11/04 10:21:45;;;;;;;18.20;14.77;;;8.80;99.90;;;;;;5004189;28;20236;-65
2021/11/04 10:24:18;;;;;;;19.73;14.27;;;8.80;99.90;;;;;;5007369;28;20262;-65
2021/11/04 10:26:54;;;;;;;17.73;13.13;;;8.80;99.90;;;;;;5005941;28;21775;-64
2021/11/04 10:29:23;;;;;;;19.43;14.07;;;8.80;99.90;;;;;;5006483;28;20236;-65
2021/11/04 10:31:54;;;;;;;18.17;13.60;;;8.80;99.90;;;;;;5003876;28;20240;-63
2021/11/04 10:34:28;;;;;;;17.37;13.97;;;8.90;99.90;;;;;;5006447;28;20271;-65
2021/11/04 10:37:08;;;;;;;20.40;14.37;;;8.90;99.90;;;;;;5005408;28;20233;-65
2021/11/04 10:39:38;;;;;;;18.30;14.27;;;8.90;99.90;;;;;;5006868;28;20235;-65
2021/11/04 10:42:07;;;;;;;18.13;14.03;;;8.90;99.90;;;;;;5003422;28;21225;-65
2021/11/04 10:44:35;;;;;;;22.03;14.73;;;8.90;99.90;;;;;;5006785;28;20632;-64
2021/11/04 10:47:04;;;;;;;18.87;14.20;;;8.90;99.90;;;;;;5007013;28;20243;-64
2021/11/04 10:49:44;;;;;;;18.10;13.90;;;9.00;99.90;;;;;;5006263;28;20255;-64
2021/11/04 10:52:14;;;;;;;18.40;13.97;;;9.00;99.90;;;;;;5003325;28;20738;-64
2021/11/04 10:54:43;;;;;;;18.73;13.97;;;9.10;99.90;;;;;;5005873;28;20265;-65
2021/11/04 10:57:12;;;;;;;19.40;14.67;;;9.10;99.90;;;;;;5006484;28;20242;-64
2021/11/04 10:59:46;;;;;;;16.60;13.20;;;9.20;99.90;;;;;;5005818;28;20925;-64
2021/11/04 11:02:17;;;;;;;16.97;13.53;;;9.20;99.90;;;;;;5004087;28;20781;-65
2021/11/04 11:04:46;;;;;;;17.37;13.60;;;9.20;99.90;;;;;;5007306;28;20243;-64
2021/11/04 11:07:15;;;;;;;16.93;13.70;;;9.10;99.90;;;;;;5005922;28;20268;-65
2021/11/04 11:09:44;;;;;;;17.00;12.90;;;9.10;99.90;;;;;;4993954;28;20241;-64
2021/11/04 11:12:12;;;;;;;17.10;13.43;;;9.10;99.90;;;;;;4992969;28;20232;-65
2021/11/04 11:14:40;;;;;;;15.60;12.70;;;9.10;99.90;;;;;;4995864;28;20961;-65
2021/11/04 11:17:09;;;;;;;16.87;13.50;;;9.10;99.90;;;;;;4994677;28;20306;-64
2021/11/04 11:19:43;;;;;;;16.70;13.10;;;9.10;99.90;;;;;;5002805;28;20275;-65
2021/11/04 11:22:15;;;;;;;16.63;12.87;;;9.10;99.90;;;;;;5002417;28;20335;-65
2021/11/04 11:24:45;;;;;;;14.40;12.40;;;9.10;99.90;;;;;;5004448;28;20240;-65
2021/11/04 11:27:16;;;;;;;15.17;13.20;;;9.10;99.90;;;;;;5004531;28;20235;-64
2021/11/04 11:29:46;;;;;;;15.93;12.30;;;9.10;99.90;;;;;;5003932;28;20267;-65
2021/11/04 11:32:18;;;;;;;13.77;11.00;;;9.10;99.90;;;;;;5001268;28;20323;-64
2021/11/04 11:34:49;;;;;;;14.03;11.20;;;9.10;99.90;;;;;;5004464;28;20731;-64
2021/11/04 11:37:22;;;;;;;14.60;11.37;;;9.10;99.90;;;;;;5005015;28;20327;-65
2021/11/04 11:40:11;;;;;;;13.97;10.83;;;9.10;99.90;;;;;;5004061;28;20243;-64
2021/11/04 11:42:55;;;;;;;11.70;10.13;;;9.00;99.90;;;;;;5002672;28;20805;-64
2021/11/04 11:45:24;;;;;;;10.90;9.67;;;9.00;99.90;;;;;;5004003;28;20585;-65
2021/11/04 11:47:52;;;;;;;11.60;9.70;;;9.10;99.90;;;;;;5005679;28;20877;-64
2021/11/04 11:50:29;;;;;;;10.87;9.77;;;9.10;99.90;;;;;;5005413;28;20255;-64
2021/11/04 11:53:01;;;;;;;10.53;9.27;;;9.10;99.90;;;;;;5007993;28;20691;-64
2021/11/04 11:55:42;;;;;;;13.00;10.17;;;9.10;99.90;;;;;;5008991;28;20382;-64
2021/11/04 11:58:33;;;;;;;11.57;10.40;;;9.20;99.90;;;;;;5008102;28;20263;-64
2021/11/04 12:01:10;;;;;;;12.10;10.07;;;9.20;99.90;;;;;;5004770;28;20705;-64
2021/11/04 12:04:00;;;;;;;10.67;9.57;;;9.20;99.90;;;;;;5008319;28;20259;-65
2021/11/04 12:06:49;;;;;;;10.23;9.13;;;9.20;99.90;;;;;;5007556;28;20810;-65
2021/11/04 12:09:41;;;;;;;10.93;9.47;;;9.20;99.90;;;;;;5007754;28;20243;-64
2021/11/04 12:12:46;;;;;;;10.20;9.20;;;9.20;99.90;;;;;;5003944;28;20323;-64
2021/11/04 12:15:17;;;;;;;11.00;9.90;;;9.20;99.90;;;;;;5008477;28;20712;-63
2021/11/04 12:18:14;;;;;;;13.17;10.07;;;9.20;99.90;;;;;;5007333;28;20236;-64
2021/11/04 12:20:51;;;;;;;11.47;9.73;;;9.20;99.90;;;;;;5001112;28;20236;-64
2021/11/04 12:23:43;;;;;;;11.53;10.07;;;9.20;99.90;;;;;;5007971;28;20251;-65
2021/11/04 12:26:15;;;;;;;10.60;9.43;;;9.20;99.90;;;;;;5009454;28;20247;-64
2021/11/04 12:28:49;;;;;;;10.57;9.40;;;9.20;99.90;;;;;;5011669;28;20314;-63
2021/11/04 12:31:19;;;;;;;12.23;9.37;;;9.20;99.90;;;;;;5006020;28;20240;-65
2021/11/04 12:33:47;;;;;;;11.50;9.73;;;9.20;99.90;;;;;;5011784;28;20241;-64
2021/11/04 12:36:29;;;;;;;11.40;9.80;;;9.20;99.90;;;;;;5010981;28;20247;-65
2021/11/04 12:38:58;;;;;;;10.73;9.63;;;9.20;99.90;;;;;;5010814;28;20318;-64
2021/11/04 12:41:28;;;;;;;10.10;9.10;;;9.20;99.90;;;;;;5005032;28;20228;-64
2021/11/04 12:44:05;;;;;;;10.63;9.53;;;9.20;99.90;;;;;;5012411;28;20240;-64
2021/11/04 12:46:34;;;;;;;13.00;10.00;;;9.20;99.90;;;;;;5011664;28;20247;-64
2021/11/04 12:49:05;;;;;;;10.40;9.33;;;9.30;99.90;;;;;;5010904;28;20239;-64
2021/11/04 12:51:50;;;;;;;10.87;9.77;;;9.30;99.90;;;;;;5005331;28;20599;-65
2021/11/04 12:54:21;;;;;;;11.57;9.77;;;9.30;99.90;;;;;;5012132;28;20314;-64